Time;durP1;ratioP1;P1;durP2;ratioP2;P2;SDS_P1;SDS_P2;PMS_P1;PMS_P2;Temp;Humidity;BMP_temperature;BMP_pressure;BME280_temperature;BME280_humidity;BME280_pressure;Samples;Min_cycle;Max_cycle;Signal;HPM_P1;HPM_P2
2020/12/13 00:01:56;;;;;;;167.23;42.08;;;10.40;65.70;;;;;;4986435;28;20837;-65
2020/12/13 00:04:22;;;;;;;169.43;40.85;;;10.40;65.70;;;;;;4987899;28;20049;-65
2020/12/13 00:06:47;;;;;;;161.80;40.40;;;10.40;65.70;;;;;;4984110;28;20034;-65
2020/12/13 00:09:13;;;;;;;182.63;41.30;;;10.40;65.70;;;;;;4988817;28;20065;-64
2020/12/13 00:11:39;;;;;;;165.35;41.80;;;10.30;65.70;;;;;;4990760;28;20045;-65
2020/12/13 00:14:04;;;;;;;164.73;41.55;;;10.30;65.70;;;;;;4986705;28;20050;-65
2020/12/13 00:16:30;;;;;;;166.07;42.28;;;10.30;65.70;;;;;;4992116;28;20033;-64
2020/12/13 00:18:56;;;;;;;159.77;41.38;;;10.30;65.70;;;;;;4989081;28;20060;-64
2020/12/13 00:21:26;;;;;;;180.25;42.97;;;10.30;65.70;;;;;;4986896;28;20038;-65
2020/12/13 00:23:53;;;;;;;169.75;41.85;;;10.30;65.70;;;;;;4987105;28;20521;-64
2020/12/13 00:26:19;;;;;;;172.63;42.75;;;10.30;65.70;;;;;;4987744;28;20041;-64
2020/12/13 00:28:44;;;;;;;164.25;42.10;;;10.30;65.90;;;;;;4987575;28;20069;-64
2020/12/13 00:31:15;;;;;;;177.90;43.80;;;10.30;65.90;;;;;;4988828;28;20061;-65
2020/12/13 00:33:41;;;;;;;180.60;45.42;;;10.30;65.90;;;;;;4987066;28;20053;-65
2020/12/13 00:36:07;;;;;;;150.15;42.85;;;10.30;65.90;;;;;;4971629;28;20048;-64
2020/12/13 00:38:33;;;;;;;200.15;44.75;;;10.30;65.90;;;;;;4989601;28;20096;-64
2020/12/13 00:40:59;;;;;;;179.15;44.67;;;10.30;65.90;;;;;;4986035;28;20441;-65
2020/12/13 00:43:24;;;;;;;191.50;43.17;;;10.30;65.90;;;;;;4995782;28;20057;-64
2020/12/13 00:45:50;;;;;;;185.15;44.92;;;10.30;65.90;;;;;;4991463;28;20160;-64
2020/12/13 00:48:15;;;;;;;176.38;44.85;;;10.30;65.90;;;;;;4987615;28;20595;-64
2020/12/13 00:50:41;;;;;;;182.63;45.05;;;10.30;65.90;;;;;;4981526;28;20046;-65
2020/12/13 00:53:08;;;;;;;181.10;45.33;;;10.30;66.00;;;;;;4980685;28;20179;-64
2020/12/13 00:55:34;;;;;;;191.15;45.10;;;10.30;65.90;;;;;;4980102;28;21260;-64
2020/12/13 00:57:59;;;;;;;194.18;45.20;;;10.30;65.90;;;;;;4986105;28;20049;-65
2020/12/13 01:00:26;;;;;;;193.57;45.90;;;10.40;65.90;;;;;;4986947;28;20045;-64
2020/12/13 01:02:56;;;;;;;185.77;43.90;;;10.40;65.90;;;;;;4982720;28;20040;-65
2020/12/13 01:05:21;;;;;;;187.65;44.70;;;10.40;65.80;;;;;;4986418;28;20052;-64
2020/12/13 01:07:47;;;;;;;170.77;44.10;;;10.40;65.90;;;;;;5000458;22;20053;-63
2020/12/13 01:10:13;;;;;;;195.75;44.70;;;10.40;66.50;;;;;;5007629;28;20064;-64
2020/12/13 01:12:41;;;;;;;179.50;45.03;;;10.40;65.90;;;;;;5009919;28;20043;-64
2020/12/13 01:15:07;;;;;;;200.43;44.67;;;10.40;65.90;;;;;;5012740;28;20072;-64
2020/12/13 01:17:33;;;;;;;187.57;45.03;;;10.40;65.90;;;;;;5014098;28;20043;-64
2020/12/13 01:19:58;;;;;;;184.98;45.63;;;10.40;65.70;;;;;;5011756;28;20498;-64
2020/12/13 01:22:24;;;;;;;199.35;46.42;;;10.40;65.70;;;;;;5006913;28;20140;-64
2020/12/13 01:24:50;;;;;;;190.30;44.92;;;10.40;65.80;;;;;;4990417;28;20123;-64
2020/12/13 01:27:16;;;;;;;198.32;45.08;;;10.40;65.70;;;;;;5015506;28;20071;-64
2020/12/13 01:29:41;;;;;;;197.80;47.83;;;10.40;65.70;;;;;;5013754;28;20041;-64
2020/12/13 01:32:07;;;;;;;201.00;47.33;;;10.40;65.70;;;;;;5008450;28;20028;-64
2020/12/13 01:34:32;;;;;;;202.32;45.42;;;10.40;65.70;;;;;;5005890;28;20690;-64
2020/12/13 01:37:00;;;;;;;208.95;46.38;;;10.40;66.00;;;;;;5012261;28;20481;-64
2020/12/13 01:39:26;;;;;;;193.48;47.72;;;10.40;65.60;;;;;;5009260;28;20053;-64
2020/12/13 01:41:59;;;;;;;193.20;45.72;;;10.40;65.60;;;;;;5004147;28;20171;-64
2020/12/13 01:44:35;;;;;;;207.10;48.45;;;10.40;65.60;;;;;;5008971;28;20336;-64
2020/12/13 01:47:02;;;;;;;191.07;46.95;;;10.40;65.70;;;;;;4993918;28;20043;-64
2020/12/13 01:49:33;;;;;;;208.57;45.45;;;10.40;65.70;;;;;;4991397;28;20132;-64
2020/12/13 01:54:50;;;;;;;197.90;46.13;;;10.30;65.80;;;;;;5010532;28;20116;-64
2020/12/13 01:57:19;;;;;;;203.93;46.85;;;10.30;65.80;;;;;;5013286;28;20557;-64
2020/12/13 01:59:49;;;;;;;205.48;46.50;;;10.30;65.90;;;;;;5015057;28;20052;-64
2020/12/13 02:02:18;;;;;;;210.57;47.03;;;10.30;65.90;;;;;;5009964;28;20041;-64
2020/12/13 02:04:46;;;;;;;216.10;45.95;;;10.20;66.00;;;;;;5008359;28;20049;-64
2020/12/13 02:07:15;;;;;;;209.55;45.60;;;10.20;66.00;;;;;;5008602;28;20481;-64
2020/12/13 02:09:41;;;;;;;217.88;49.03;;;10.30;66.00;;;;;;5007580;28;20052;-64
2020/12/13 02:12:06;;;;;;;199.13;46.15;;;10.30;66.00;;;;;;5003623;28;20056;-64
2020/12/13 02:14:32;;;;;;;220.70;47.90;;;10.30;66.00;;;;;;5010323;28;20106;-64
2020/12/13 02:16:58;;;;;;;200.10;45.90;;;10.30;66.00;;;;;;4998405;28;20045;-64
2020/12/13 02:19:23;;;;;;;201.80;47.58;;;10.30;66.00;;;;;;5010230;28;20511;-64
2020/12/13 02:21:51;;;;;;;212.02;46.67;;;10.30;66.10;;;;;;5007340;28;20048;-64
2020/12/13 02:24:17;;;;;;;210.32;48.45;;;10.30;66.00;;;;;;5009568;28;20053;-64
2020/12/13 02:26:44;;;;;;;250.60;47.75;;;10.40;66.00;;;;;;5009600;28;20616;-64
2020/12/13 02:29:10;;;;;;;226.85;47.50;;;10.40;66.00;;;;;;4989611;28;20069;-64
2020/12/13 02:31:36;;;;;;;228.23;47.13;;;10.40;66.00;;;;;;5011136;28;20128;-64
2020/12/13 02:34:03;;;;;;;222.95;48.40;;;10.40;65.90;;;;;;4981428;28;20042;-64
2020/12/13 02:36:29;;;;;;;227.25;49.47;;;10.40;65.80;;;;;;5006666;28;20041;-64
2020/12/13 02:38:55;;;;;;;218.68;47.33;;;10.50;65.90;;;;;;5006606;28;20044;-64
2020/12/13 02:41:21;;;;;;;221.20;48.30;;;10.40;65.70;;;;;;5003667;28;20053;-64
2020/12/13 02:43:46;;;;;;;227.10;48.78;;;10.40;65.70;;;;;;4983395;28;20135;-64
2020/12/13 02:46:12;;;;;;;219.02;47.17;;;10.40;65.80;;;;;;4997400;28;20049;-64
2020/12/13 02:48:38;;;;;;;209.18;47.08;;;10.40;65.80;;;;;;5002500;28;20569;-64
2020/12/13 02:51:03;;;;;;;206.90;47.55;;;10.40;65.90;;;;;;4999069;28;20041;-64
2020/12/13 02:53:29;;;;;;;205.63;46.05;;;10.40;65.90;;;;;;5011329;28;20041;-64
2020/12/13 02:55:54;;;;;;;214.90;48.65;;;10.40;65.90;;;;;;5008406;28;20041;-64
2020/12/13 02:58:20;;;;;;;224.63;47.67;;;10.40;65.90;;;;;;5009416;28;20171;-64
2020/12/13 03:00:46;;;;;;;223.70;49.72;;;10.40;66.00;;;;;;5013765;28;20144;-64
2020/12/13 03:03:11;;;;;;;211.23;46.88;;;10.40;65.90;;;;;;5007901;28;20048;-64
2020/12/13 03:05:37;;;;;;;211.90;48.20;;;10.40;65.90;;;;;;5005270;28;20044;-64
2020/12/13 03:08:05;;;;;;;208.13;48.53;;;10.40;65.90;;;;;;5010946;28;20045;-64
2020/12/13 03:10:30;;;;;;;211.52;48.78;;;10.50;65.90;;;;;;5008026;28;20083;-64
2020/12/13 03:12:56;;;;;;;198.77;46.50;;;10.50;65.20;;;;;;5005730;28;21089;-64
2020/12/13 03:15:22;;;;;;;209.10;47.55;;;10.50;66.00;;;;;;5009522;28;20528;-64
2020/12/13 03:17:47;;;;;;;227.93;47.28;;;10.50;66.30;;;;;;4990268;28;20071;-64
2020/12/13 03:20:13;;;;;;;241.43;48.83;;;10.50;65.90;;;;;;5012843;28;20057;-64
2020/12/13 03:22:39;;;;;;;212.43;48.63;;;10.50;65.90;;;;;;5004668;28;20049;-64
2020/12/13 03:25:04;;;;;;;211.05;49.88;;;10.50;65.90;;;;;;5009812;28;20034;-64
2020/12/13 03:27:30;;;;;;;212.90;47.75;;;10.50;65.90;;;;;;5008382;28;20037;-64
2020/12/13 03:29:59;;;;;;;193.10;46.50;;;10.50;65.90;;;;;;5008242;28;20071;-64
2020/12/13 03:32:24;;;;;;;218.38;49.55;;;10.50;66.00;;;;;;5007943;28;20481;-64
2020/12/13 03:34:50;;;;;;;217.40;47.22;;;10.50;66.00;;;;;;5008244;28;20045;-64
2020/12/13 03:37:17;;;;;;;231.38;50.10;;;10.50;66.00;;;;;;5012211;28;20095;-64
2020/12/13 03:39:43;;;;;;;222.00;50.55;;;10.50;65.90;;;;;;5010394;28;20041;-64
2020/12/13 03:42:09;;;;;;;214.63;48.58;;;10.50;66.00;;;;;;5010428;28;20036;-64
2020/12/13 03:44:34;;;;;;;220.82;49.20;;;10.50;65.90;;;;;;5007137;28;25645;-64
2020/12/13 03:47:00;;;;;;;238.10;50.17;;;10.50;65.90;;;;;;5006196;28;20045;-64
2020/12/13 03:49:25;;;;;;;201.10;48.30;;;10.50;66.00;;;;;;5008600;28;20545;-64
2020/12/13 03:51:51;;;;;;;233.57;49.78;;;10.50;65.90;;;;;;5009471;28;20571;-64
2020/12/13 03:54:17;;;;;;;215.43;48.60;;;10.50;65.90;;;;;;5009725;28;21911;-64
2020/12/13 03:56:42;;;;;;;217.07;47.88;;;10.50;66.70;;;;;;5009357;28;20041;-64
2020/12/13 03:59:08;;;;;;;215.75;48.72;;;10.50;66.00;;;;;;4996696;28;20805;-64
2020/12/13 04:01:33;;;;;;;225.43;48.78;;;10.50;66.00;;;;;;5007954;28;20489;-64
2020/12/13 04:03:59;;;;;;;216.27;49.78;;;10.50;66.00;;;;;;5009614;28;20239;-63
2020/12/13 04:06:25;;;;;;;221.70;47.58;;;10.50;66.00;;;;;;5007264;28;20044;-64
2020/12/13 04:08:50;;;;;;;215.93;48.33;;;10.50;66.00;;;;;;5007390;28;20567;-63
2020/12/13 04:11:16;;;;;;;214.30;48.45;;;10.50;66.00;;;;;;5008847;28;20741;-63
2020/12/13 04:13:42;;;;;;;233.60;50.10;;;10.60;66.10;;;;;;5009256;28;22322;-64
2020/12/13 04:16:11;;;;;;;243.20;49.25;;;10.60;66.00;;;;;;4986919;28;20049;-64
2020/12/13 04:18:37;;;;;;;219.02;48.28;;;10.60;66.00;;;;;;5002412;28;20045;-64
2020/12/13 04:21:04;;;;;;;223.02;47.38;;;10.60;65.90;;;;;;5007861;28;20118;-64
2020/12/13 04:23:30;;;;;;;212.52;47.65;;;10.60;65.90;;;;;;5013258;28;20053;-63
2020/12/13 04:25:55;;;;;;;233.90;48.67;;;10.60;66.00;;;;;;5005585;28;20037;-64
2020/12/13 04:28:21;;;;;;;208.93;49.15;;;10.60;66.00;;;;;;5013689;28;20079;-63
2020/12/13 04:30:47;;;;;;;197.82;47.83;;;10.60;65.90;;;;;;5015935;28;20345;-63
2020/12/13 04:33:12;;;;;;;238.32;48.90;;;10.60;66.00;;;;;;5014465;28;20095;-64
2020/12/13 04:35:38;;;;;;;237.95;48.40;;;10.60;65.90;;;;;;5015571;28;20045;-64
2020/12/13 04:38:04;;;;;;;218.75;49.35;;;10.60;66.00;;;;;;5014473;28;20480;-63
2020/12/13 04:40:33;;;;;;;212.15;46.90;;;10.60;65.90;;;;;;5015012;28;20040;-63
2020/12/13 04:43:00;;;;;;;225.57;48.67;;;10.60;66.00;;;;;;5014177;28;20065;-63
2020/12/13 04:45:26;;;;;;;214.15;48.20;;;10.60;65.90;;;;;;5021134;28;20041;-63
2020/12/13 04:48:08;;;;;;;223.68;48.75;;;10.60;65.90;;;;;;5019199;28;20071;-63
2020/12/13 04:50:39;;;;;;;222.63;47.45;;;10.60;65.90;;;;;;5024808;28;20033;-63
2020/12/13 04:53:07;;;;;;;226.02;47.95;;;10.60;66.00;;;;;;5022451;28;20048;-63
2020/12/13 04:55:53;;;;;;;220.07;46.83;;;10.60;66.00;;;;;;5018251;28;20053;-63
2020/12/13 04:58:22;;;;;;;209.75;47.75;;;10.60;66.10;;;;;;5021320;28;20037;-63
2020/12/13 05:00:56;;;;;;;235.57;46.13;;;10.60;66.00;;;;;;5015118;28;20055;-64
2020/12/13 05:03:23;;;;;;;236.93;47.38;;;10.60;66.00;;;;;;5013079;28;20098;-63
2020/12/13 05:05:49;;;;;;;186.63;47.63;;;10.60;66.00;;;;;;5015772;28;20843;-63
2020/12/13 05:08:15;;;;;;;186.52;45.08;;;10.60;66.00;;;;;;5010148;28;20102;-64
2020/12/13 05:10:41;;;;;;;199.27;46.30;;;10.60;65.90;;;;;;4997085;28;20128;-64
2020/12/13 05:13:08;;;;;;;200.00;43.08;;;10.70;66.00;;;;;;5018550;28;20774;-64
2020/12/13 05:15:35;;;;;;;206.07;45.05;;;10.70;66.10;;;;;;5002307;28;20839;-64
2020/12/13 05:18:02;;;;;;;190.10;45.85;;;10.70;66.00;;;;;;5016390;28;20136;-64
2020/12/13 05:20:28;;;;;;;191.90;45.35;;;10.70;65.90;;;;;;5008155;28;20341;-63
2020/12/13 05:22:57;;;;;;;187.43;44.80;;;10.70;65.90;;;;;;5009186;28;20099;-64
2020/12/13 05:25:32;;;;;;;188.93;45.03;;;10.70;66.00;;;;;;5010349;28;20048;-64
2020/12/13 05:28:04;;;;;;;184.88;43.20;;;10.70;66.00;;;;;;5011007;28;20075;-64
2020/12/13 05:30:34;;;;;;;179.15;43.95;;;10.70;65.90;;;;;;5008534;28;20232;-64
2020/12/13 05:33:06;;;;;;;169.52;42.45;;;10.70;65.90;;;;;;5005026;28;20048;-63
2020/12/13 05:35:32;;;;;;;179.30;43.70;;;10.70;65.90;;;;;;5014098;28;20041;-63
2020/12/13 05:37:57;;;;;;;192.30;43.67;;;10.80;66.00;;;;;;5011164;28;20933;-63
2020/12/13 05:40:24;;;;;;;198.95;45.08;;;10.80;65.90;;;;;;5011762;28;20044;-63
2020/12/13 05:43:00;;;;;;;197.85;43.08;;;10.80;65.90;;;;;;5009208;28;20065;-63
2020/12/13 05:45:36;;;;;;;196.35;44.55;;;10.80;65.90;;;;;;5012216;28;20536;-64
2020/12/13 05:53:25;;;;;;;182.00;43.58;;;10.80;65.90;;;;;;5013114;28;20128;-64
2020/12/13 05:55:53;;;;;;;189.32;43.72;;;10.80;65.90;;;;;;5010677;28;20047;-64
2020/12/13 05:58:20;;;;;;;199.88;44.97;;;10.80;65.90;;;;;;4993866;28;20714;-63
2020/12/13 06:00:46;;;;;;;192.10;44.38;;;10.80;65.90;;;;;;5014964;28;20037;-64
2020/12/13 06:03:21;;;;;;;188.23;46.05;;;10.90;65.90;;;;;;5010572;28;20063;-63
2020/12/13 06:05:51;;;;;;;191.93;45.85;;;10.90;65.80;;;;;;5012606;28;20060;-64
2020/12/13 06:08:22;;;;;;;192.02;44.40;;;10.90;65.80;;;;;;5012160;28;20057;-64
2020/12/13 06:10:53;;;;;;;214.40;46.08;;;10.90;65.80;;;;;;4996255;28;20052;-64
2020/12/13 06:13:29;;;;;;;191.00;43.38;;;10.90;65.80;;;;;;5009531;28;20063;-64
2020/12/13 06:15:55;;;;;;;207.27;44.65;;;10.90;65.80;;;;;;5010671;28;20077;-64
2020/12/13 06:18:21;;;;;;;220.63;46.92;;;10.90;65.90;;;;;;5010693;28;20167;-64
2020/12/13 06:20:48;;;;;;;280.67;49.05;;;10.90;65.80;;;;;;5010141;28;20051;-64
2020/12/13 06:23:18;;;;;;;224.90;46.60;;;10.90;65.90;;;;;;5007537;28;20051;-64
2020/12/13 06:25:44;;;;;;;216.02;44.70;;;10.90;65.80;;;;;;5012716;28;20173;-64
2020/12/13 06:28:11;;;;;;;224.80;47.67;;;10.90;65.80;;;;;;5017844;28;20036;-64
2020/12/13 06:30:37;;;;;;;216.05;46.15;;;10.90;65.80;;;;;;5018690;28;20045;-64
2020/12/13 06:33:03;;;;;;;253.93;47.30;;;10.90;65.80;;;;;;4995434;28;20060;-64
2020/12/13 06:35:28;;;;;;;253.73;47.75;;;10.90;65.80;;;;;;5014038;28;20049;-64
2020/12/13 06:37:54;;;;;;;217.82;46.03;;;10.90;65.80;;;;;;5013862;28;20049;-64
2020/12/13 06:40:21;;;;;;;196.80;43.83;;;11.00;65.80;;;;;;5018902;28;20080;-64
2020/12/13 06:42:48;;;;;;;189.77;42.92;;;11.00;65.80;;;;;;5011927;28;20059;-63
2020/12/13 06:45:15;;;;;;;227.55;46.40;;;11.00;65.80;;;;;;5012872;28;20037;-63
2020/12/13 06:47:42;;;;;;;274.90;46.33;;;11.00;65.80;;;;;;5009365;28;20052;-63
2020/12/13 06:50:20;;;;;;;220.00;45.05;;;11.00;65.70;;;;;;5007136;28;20506;-63
2020/12/13 06:52:52;;;;;;;249.20;47.58;;;11.00;65.70;;;;;;5014038;28;20136;-64
2020/12/13 06:55:29;;;;;;;230.35;44.88;;;11.00;65.70;;;;;;5013863;28;20045;-63
2020/12/13 06:57:55;;;;;;;230.18;46.15;;;11.10;65.70;;;;;;5002711;28;20041;-63
2020/12/13 07:00:21;;;;;;;195.35;44.13;;;11.10;65.70;;;;;;5024340;28;20061;-63
2020/12/13 07:02:46;;;;;;;238.05;45.83;;;11.10;65.70;;;;;;5025510;28;20151;-63
2020/12/13 07:05:13;;;;;;;200.32;46.15;;;11.10;65.60;;;;;;5003920;28;20045;-64
2020/12/13 07:07:39;;;;;;;204.40;45.53;;;11.10;65.60;;;;;;5040386;23;20457;-65
2020/12/13 07:10:06;;;;;;;205.77;43.75;;;11.10;65.70;;;;;;5028932;28;20033;-65
2020/12/13 07:12:32;;;;;;;209.13;44.45;;;11.10;65.60;;;;;;5012775;28;20033;-64
2020/12/13 07:14:58;;;;;;;200.50;43.10;;;11.10;65.60;;;;;;5029501;28;20084;-64
2020/12/13 07:17:32;;;;;;;197.25;42.95;;;11.10;65.50;;;;;;5028821;28;20120;-65
2020/12/13 07:20:00;;;;;;;220.00;42.22;;;11.10;65.50;;;;;;5028997;28;20048;-64
2020/12/13 07:22:33;;;;;;;194.98;43.63;;;11.20;65.50;;;;;;5017431;28;20077;-64
2020/12/13 07:24:59;;;;;;;193.63;44.15;;;11.20;65.50;;;;;;5022180;28;20120;-65
2020/12/13 07:27:26;;;;;;;210.00;43.88;;;11.20;65.40;;;;;;5026670;28;20481;-64
2020/12/13 07:29:53;;;;;;;211.80;44.78;;;11.20;65.40;;;;;;5026922;28;20041;-64
2020/12/13 07:32:21;;;;;;;186.98;42.10;;;11.20;65.40;;;;;;5025975;28;20061;-65
2020/12/13 07:34:47;;;;;;;251.13;43.78;;;11.20;65.40;;;;;;5034375;28;20041;-65
2020/12/13 07:37:15;;;;;;;196.63;41.28;;;11.20;65.40;;;;;;5027294;28;21090;-65
2020/12/13 07:39:40;;;;;;;190.15;41.08;;;11.30;65.40;;;;;;5025834;28;20063;-65
2020/12/13 07:42:12;;;;;;;153.35;38.10;;;11.30;65.40;;;;;;5024883;28;20501;-65
2020/12/13 07:44:38;;;;;;;131.23;32.88;;;11.20;65.30;;;;;;5018608;28;20048;-65
2020/12/13 07:47:03;;;;;;;144.13;32.13;;;11.20;65.40;;;;;;5021426;28;20032;-65
2020/12/13 07:49:29;;;;;;;133.02;29.60;;;11.20;65.40;;;;;;5025561;28;20788;-65
2020/12/13 07:51:56;;;;;;;139.75;29.90;;;11.20;65.30;;;;;;5004937;28;20048;-65
2020/12/13 07:54:26;;;;;;;117.03;29.55;;;11.10;65.30;;;;;;5024717;28;20079;-65
2020/12/13 07:56:54;;;;;;;128.10;29.40;;;11.10;65.30;;;;;;5023840;28;20039;-64
2020/12/13 07:59:29;;;;;;;132.13;29.67;;;11.00;65.20;;;;;;5032369;28;20047;-64
2020/12/13 08:01:56;;;;;;;129.50;30.25;;;11.00;65.20;;;;;;5023726;28;20037;-64
2020/12/13 08:04:34;;;;;;;131.63;28.55;;;10.90;65.30;;;;;;5022710;28;20413;-65
2020/12/13 08:07:04;;;;;;;135.30;30.30;;;10.90;65.30;;;;;;5027238;28;20386;-65
2020/12/13 08:09:32;;;;;;;135.38;29.70;;;10.80;65.20;;;;;;5023098;28;20167;-64
2020/12/13 08:11:58;;;;;;;145.95;32.78;;;10.80;65.20;;;;;;5021399;28;20790;-64
2020/12/13 08:14:26;;;;;;;136.18;30.33;;;10.80;65.30;;;;;;5024219;28;20060;-64
2020/12/13 08:16:53;;;;;;;134.35;29.80;;;10.70;66.00;;;;;;5019276;28;20424;-64
2020/12/13 08:19:47;;;;;;;143.65;30.83;;;10.70;65.20;;;;;;5020197;28;20056;-64
2020/12/13 08:22:20;;;;;;;136.65;29.60;;;10.60;65.30;;;;;;5016976;28;20045;-65
2020/12/13 08:24:58;;;;;;;132.85;28.42;;;10.60;65.30;;;;;;5022224;28;20509;-65
2020/12/13 08:27:26;;;;;;;159.27;29.90;;;10.60;65.50;;;;;;5001666;28;20426;-65
2020/12/13 08:29:52;;;;;;;161.73;29.50;;;10.60;65.40;;;;;;5025427;28;20052;-65
2020/12/13 08:32:22;;;;;;;242.32;33.33;;;10.60;65.30;;;;;;5026855;28;20568;-65
2020/12/13 08:34:47;;;;;;;207.80;31.30;;;10.60;65.30;;;;;;5021733;28;20087;-65
2020/12/13 08:37:13;;;;;;;190.27;30.92;;;10.60;65.30;;;;;;5018305;28;20389;-65
2020/12/13 08:39:38;;;;;;;166.18;30.50;;;10.60;65.40;;;;;;5024362;28;20130;-65
2020/12/13 08:42:06;;;;;;;217.70;30.20;;;10.60;65.40;;;;;;5025291;28;20041;-65
2020/12/13 08:44:34;;;;;;;276.77;31.33;;;10.60;65.30;;;;;;5026265;28;20037;-65
2020/12/13 08:47:03;;;;;;;206.95;29.67;;;10.60;65.30;;;;;;5018954;28;20456;-65
2020/12/13 08:49:39;;;;;;;222.45;30.10;;;10.50;65.30;;;;;;5025080;28;20091;-65
2020/12/13 08:52:13;;;;;;;279.50;32.90;;;10.50;65.20;;;;;;5023643;28;20041;-65
2020/12/13 08:54:56;;;;;;;217.35;30.20;;;10.50;65.20;;;;;;5022861;28;20060;-65
2020/12/13 08:57:33;;;;;;;278.02;31.77;;;10.50;65.40;;;;;;5023109;28;20575;-65
2020/12/13 09:00:13;;;;;;;363.42;34.45;;;10.50;65.40;;;;;;5019995;28;20033;-65
2020/12/13 09:02:38;;;;;;;250.02;32.97;;;10.50;65.50;;;;;;5022415;28;20659;-65
2020/12/13 09:05:06;;;;;;;249.00;31.67;;;10.50;65.40;;;;;;5024643;28;20524;-65
2020/12/13 09:07:32;;;;;;;334.02;36.00;;;10.50;65.40;;;;;;5033173;28;20047;-65
2020/12/13 09:10:18;;;;;;;342.63;37.60;;;10.50;65.50;;;;;;5031600;28;20049;-65
2020/12/13 09:12:44;;;;;;;206.25;32.22;;;10.50;65.50;;;;;;5022247;28;20729;-65
2020/12/13 09:15:14;;;;;;;276.70;33.80;;;10.50;65.50;;;;;;5025572;28;20049;-65
2020/12/13 09:17:41;;;;;;;285.08;30.90;;;10.50;65.50;;;;;;5030058;28;20036;-65
2020/12/13 09:20:08;;;;;;;203.50;28.08;;;10.50;65.50;;;;;;5027942;28;20062;-65
2020/12/13 09:22:34;;;;;;;231.65;28.98;;;10.50;65.40;;;;;;5027951;28;20048;-65
2020/12/13 09:25:00;;;;;;;273.65;29.65;;;10.50;65.50;;;;;;5031017;28;20040;-65
2020/12/13 09:27:26;;;;;;;193.60;27.20;;;10.50;65.50;;;;;;5029361;28;20029;-65
2020/12/13 09:29:52;;;;;;;242.15;27.17;;;10.40;65.40;;;;;;5031380;28;20033;-65
2020/12/13 09:32:19;;;;;;;232.23;27.45;;;10.40;65.40;;;;;;5027357;28;20090;-65
2020/12/13 09:34:45;;;;;;;318.90;28.25;;;10.40;65.50;;;;;;5030617;28;20041;-65
2020/12/13 09:37:16;;;;;;;298.25;28.30;;;10.40;65.30;;;;;;5028520;28;20033;-65
2020/12/13 09:39:42;;;;;;;260.73;26.27;;;10.40;65.30;;;;;;5034455;28;20037;-65
2020/12/13 09:42:08;;;;;;;361.83;31.33;;;10.40;65.40;;;;;;5030390;28;20033;-64
2020/12/13 09:44:34;;;;;;;314.23;30.27;;;10.40;65.30;;;;;;5033061;28;20041;-64
2020/12/13 09:47:00;;;;;;;405.80;32.35;;;10.40;65.50;;;;;;5034441;28;20036;-64
2020/12/13 09:49:27;;;;;;;203.60;27.55;;;10.40;65.50;;;;;;5030968;28;20123;-64
2020/12/13 09:52:00;;;;;;;265.10;29.45;;;10.40;65.70;;;;;;5024463;28;20048;-64
2020/12/13 09:54:26;;;;;;;391.88;33.22;;;10.40;65.90;;;;;;5030489;28;20068;-65
2020/12/13 09:56:53;;;;;;;263.98;31.67;;;10.50;65.70;;;;;;5030976;28;20167;-65
2020/12/13 09:59:19;;;;;;;307.58;33.85;;;10.50;65.60;;;;;;5030874;28;20096;-65
2020/12/13 10:01:44;;;;;;;353.80;33.08;;;10.50;66.00;;;;;;5027553;28;20492;-65
2020/12/13 10:04:10;;;;;;;163.85;28.55;;;10.50;65.80;;;;;;5026140;28;20120;-64
2020/12/13 10:09:20;;;;;;;206.82;30.00;;;10.60;65.70;;;;;;5026711;28;20078;-65
2020/12/13 10:11:46;;;;;;;138.38;28.48;;;10.50;65.50;;;;;;5031348;28;20697;-65
2020/12/13 10:14:13;;;;;;;177.02;29.20;;;10.60;65.70;;;;;;5028190;28;20118;-65
2020/12/13 10:16:41;;;;;;;161.35;27.73;;;10.60;65.70;;;;;;5025542;28;20533;-64
2020/12/13 10:19:07;;;;;;;179.00;31.88;;;10.60;65.70;;;;;;5024833;28;20065;-64
2020/12/13 10:21:34;;;;;;;138.32;26.95;;;10.70;65.80;;;;;;5022102;28;20028;-64
2020/12/13 10:24:00;;;;;;;218.50;28.35;;;10.70;65.70;;;;;;5018514;28;20036;-64
2020/12/13 10:26:32;;;;;;;146.38;27.58;;;10.80;65.60;;;;;;5017679;28;20513;-64
2020/12/13 10:28:58;;;;;;;142.80;25.85;;;10.80;65.40;;;;;;5028296;28;20044;-64
2020/12/13 10:31:32;;;;;;;154.10;27.52;;;10.80;65.40;;;;;;5024520;28;20045;-64
2020/12/13 10:33:58;;;;;;;152.85;26.67;;;10.80;66.10;;;;;;5023079;28;20045;-64
2020/12/13 10:36:24;;;;;;;126.40;26.65;;;10.90;65.50;;;;;;5017812;28;20056;-64
2020/12/13 10:38:54;;;;;;;184.40;29.40;;;10.90;65.50;;;;;;5021307;28;20564;-65
2020/12/13 10:41:21;;;;;;;241.15;28.67;;;11.00;65.50;;;;;;5010437;28;20581;-65
2020/12/13 10:43:47;;;;;;;116.22;25.45;;;11.00;65.10;;;;;;5029963;28;20039;-64
2020/12/13 10:46:13;;;;;;;134.00;25.52;;;11.00;65.10;;;;;;5034216;28;20049;-64
2020/12/13 10:48:39;;;;;;;126.05;24.10;;;10.90;65.20;;;;;;5036585;28;20045;-64
2020/12/13 10:51:05;;;;;;;149.90;25.05;;;10.90;65.30;;;;;;5035619;28;20623;-64
2020/12/13 10:53:31;;;;;;;166.55;25.60;;;10.90;65.40;;;;;;5037475;28;20052;-64
2020/12/13 10:55:56;;;;;;;99.03;23.23;;;10.90;65.20;;;;;;5038629;28;20075;-64
2020/12/13 10:58:22;;;;;;;96.53;23.63;;;10.90;65.10;;;;;;5042245;28;20056;-64
2020/12/13 11:00:48;;;;;;;100.63;22.75;;;10.90;65.10;;;;;;5041598;28;20095;-64
2020/12/13 11:03:17;;;;;;;106.07;23.55;;;10.90;65.20;;;;;;5040896;28;20041;-64
2020/12/13 11:05:45;;;;;;;123.72;23.23;;;10.90;65.10;;;;;;5042682;28;20044;-64
2020/12/13 11:08:12;;;;;;;112.05;23.92;;;10.90;64.90;;;;;;5041196;28;20048;-64
2020/12/13 11:10:37;;;;;;;115.57;24.85;;;10.90;65.00;;;;;;5043448;28;20489;-64
2020/12/13 11:13:03;;;;;;;101.25;23.38;;;10.90;65.80;;;;;;5038174;28;20055;-64
2020/12/13 11:15:29;;;;;;;97.00;24.23;;;10.90;65.00;;;;;;5041545;28;20052;-64
2020/12/13 11:17:55;;;;;;;102.55;23.83;;;10.90;65.10;;;;;;5041886;28;20382;-64
2020/12/13 11:20:20;;;;;;;88.97;23.70;;;11.00;65.70;;;;;;5041188;28;20040;-64
2020/12/13 11:22:46;;;;;;;93.93;22.55;;;11.00;65.00;;;;;;5039482;28;20048;-64
2020/12/13 11:25:12;;;;;;;99.60;23.73;;;11.00;64.90;;;;;;5039116;28;20022;-64
2020/12/13 11:27:37;;;;;;;90.03;24.50;;;11.00;64.80;;;;;;5042062;28;20029;-64
2020/12/13 11:30:05;;;;;;;87.95;23.73;;;11.00;64.80;;;;;;5041076;28;20048;-64
2020/12/13 11:32:31;;;;;;;94.15;24.63;;;11.00;65.00;;;;;;5041250;28;20516;-64
2020/12/13 11:34:56;;;;;;;88.68;24.13;;;11.00;65.10;;;;;;5040280;28;20037;-64
2020/12/13 11:37:22;;;;;;;90.50;24.58;;;11.00;65.00;;;;;;5024297;28;20029;-64
2020/12/13 11:39:48;;;;;;;85.78;24.63;;;11.00;65.10;;;;;;5042076;28;20557;-64
2020/12/13 11:42:15;;;;;;;99.97;25.73;;;11.10;65.30;;;;;;5041223;28;20042;-64
2020/12/13 11:44:41;;;;;;;88.85;24.83;;;11.10;65.40;;;;;;5042036;28;20529;-65
2020/12/13 11:47:07;;;;;;;90.43;25.33;;;11.10;65.20;;;;;;5040192;28;20047;-64
2020/12/13 11:49:33;;;;;;;99.22;26.50;;;11.10;65.30;;;;;;5040930;28;20037;-64
2020/12/13 11:51:58;;;;;;;88.55;25.27;;;11.10;65.10;;;;;;5039124;28;20032;-64
2020/12/13 11:54:24;;;;;;;87.30;25.33;;;11.10;65.10;;;;;;5040234;28;20511;-64
2020/12/13 11:56:49;;;;;;;85.03;24.95;;;11.10;65.00;;;;;;5043282;28;20036;-64
2020/12/13 11:59:15;;;;;;;82.50;25.75;;;11.10;65.00;;;;;;5041287;28;20462;-64
2020/12/13 12:01:44;;;;;;;89.22;26.25;;;11.10;65.10;;;;;;5039744;28;20041;-64
2020/12/13 12:04:10;;;;;;;80.57;25.52;;;11.10;65.10;;;;;;5037000;28;20044;-64
2020/12/13 12:06:36;;;;;;;88.53;26.80;;;11.20;65.20;;;;;;5022357;28;20033;-64
2020/12/13 12:09:02;;;;;;;81.05;25.17;;;11.20;65.30;;;;;;5036994;28;20052;-64
2020/12/13 12:11:29;;;;;;;86.22;26.73;;;11.20;65.20;;;;;;5038571;28;20048;-64
2020/12/13 12:13:54;;;;;;;80.05;26.48;;;11.20;65.30;;;;;;5038650;28;20064;-64
2020/12/13 12:16:28;;;;;;;80.10;26.38;;;11.30;65.20;;;;;;5037619;28;20143;-64
2020/12/13 12:18:55;;;;;;;80.82;26.02;;;11.30;65.10;;;;;;5035367;28;20064;-64
2020/12/13 12:21:23;;;;;;;81.05;26.45;;;11.30;65.10;;;;;;5039415;28;20400;-65
2020/12/13 12:23:49;;;;;;;82.75;27.10;;;11.30;65.10;;;;;;5037064;28;20034;-64
2020/12/13 12:26:15;;;;;;;80.85;27.67;;;11.30;65.10;;;;;;5039900;28;20513;-65
2020/12/13 12:28:40;;;;;;;80.50;26.75;;;11.30;65.30;;;;;;5039276;28;20091;-65
2020/12/13 12:31:06;;;;;;;84.35;26.67;;;11.40;65.60;;;;;;5040521;28;20045;-64